createdAt,value
2018-02-27T00:00:03.963Z,4.60
2018-02-27T00:02:31.989Z,4.18
2018-02-27T00:05:00.278Z,4.93
2018-02-27T00:07:28.553Z,4.85
2018-02-27T00:09:57.410Z,4.10
2018-02-27T00:12:26.482Z,4.97
2018-02-27T00:14:55.514Z,4.82
2018-02-27T00:17:24.218Z,4.87
2018-02-27T00:19:52.467Z,5.62
2018-02-27T00:22:20.734Z,4.70
2018-02-27T00:24:49.751Z,6.15
2018-02-27T00:27:18.029Z,5.47
2018-02-27T00:29:46.279Z,5.22
2018-02-27T00:32:15.326Z,5.00
2018-02-27T00:34:43.573Z,6.15
2018-02-27T00:37:11.822Z,6.62
2018-02-27T00:39:40.090Z,6.60
2018-02-27T00:42:08.342Z,6.32
2018-02-27T00:44:36.641Z,5.90
2018-02-27T00:47:04.888Z,7.00
2018-02-27T00:49:33.191Z,6.53
2018-02-27T00:52:01.435Z,7.43
2018-02-27T00:54:29.714Z,8.13
2018-02-27T00:56:57.984Z,6.55
2018-02-27T00:59:26.261Z,7.68
2018-02-27T01:01:54.684Z,8.48
2018-02-27T01:04:22.950Z,7.53
2018-02-27T01:06:52.049Z,8.30
2018-02-27T01:09:20.347Z,7.22
2018-02-27T01:11:48.654Z,7.40
2018-02-27T01:14:16.904Z,7.72
2018-02-27T01:16:45.217Z,8.43
2018-02-27T01:19:14.267Z,7.68
2018-02-27T01:21:42.522Z,7.00
2018-02-27T01:24:10.781Z,5.97
2018-02-27T01:26:39.819Z,5.90
2018-02-27T01:29:08.126Z,5.93
2018-02-27T01:31:36.423Z,5.20
2018-02-27T01:34:04.688Z,5.47
2018-02-27T01:36:32.980Z,5.37
2018-02-27T01:39:01.272Z,5.55
2018-02-27T01:41:30.325Z,6.07
2018-02-27T01:43:58.605Z,5.75
2018-02-27T01:46:26.869Z,5.15
2018-02-27T01:48:55.129Z,5.25
2018-02-27T01:51:23.396Z,5.35
2018-02-27T01:53:52.413Z,5.35
2018-02-27T01:56:20.679Z,4.37
2018-02-27T01:58:49.713Z,4.90
2018-02-27T02:01:17.979Z,4.40
2018-02-27T02:03:46.239Z,3.90
2018-02-27T02:06:14.532Z,5.30
2018-02-27T02:08:42.826Z,5.40
2018-02-27T02:11:11.082Z,5.03
2018-02-27T02:13:39.388Z,4.20
2018-02-27T02:16:08.018Z,4.80
2018-02-27T02:18:36.352Z,4.60
2018-02-27T02:21:04.607Z,4.47
2018-02-27T02:23:32.914Z,4.35
2018-02-27T02:26:01.162Z,4.00
2018-02-27T02:28:29.429Z,3.80
2018-02-27T02:30:58.446Z,4.03
2018-02-27T02:33:26.746Z,4.95
2018-02-27T02:35:54.990Z,4.75
2018-02-27T02:38:23.254Z,5.03
2018-02-27T02:40:52.278Z,5.10
2018-02-27T02:43:20.547Z,4.47
2018-02-27T02:45:48.799Z,4.43
2018-02-27T02:48:17.148Z,4.47
2018-02-27T02:50:45.385Z,4.80
2018-02-27T02:53:13.708Z,5.35
2018-02-27T02:55:41.950Z,4.57
2018-02-27T02:58:10.234Z,5.10
2018-02-27T03:00:38.482Z,5.20
2018-02-27T03:03:06.829Z,4.28
2018-02-27T03:05:35.093Z,4.32
2018-02-27T03:08:03.348Z,4.25
2018-02-27T03:10:31.638Z,4.72
2018-02-27T03:12:59.884Z,4.20
2018-02-27T03:15:28.915Z,4.25
2018-02-27T03:17:57.164Z,4.40
2018-02-27T03:20:26.218Z,3.90
2018-02-27T03:22:54.453Z,4.50
2018-02-27T03:25:22.722Z,4.60
2018-02-27T03:27:51.762Z,4.75
2018-02-27T03:30:20.032Z,3.80
2018-02-27T03:32:48.279Z,5.65
2018-02-27T03:35:17.429Z,4.15
2018-02-27T03:37:45.659Z,4.30
2018-02-27T03:40:13.922Z,5.05
2018-02-27T03:42:42.942Z,3.80
2018-02-27T03:45:11.219Z,5.18
2018-02-27T03:47:39.463Z,4.35
2018-02-27T03:50:07.722Z,4.32
2018-02-27T03:52:35.982Z,3.70
2018-02-27T03:55:04.266Z,4.37
2018-02-27T03:57:32.503Z,4.43
2018-02-27T04:00:00.814Z,4.15
2018-02-27T04:02:29.061Z,4.00
2018-02-27T04:04:58.089Z,4.35
2018-02-27T04:07:26.340Z,4.95
2018-02-27T04:09:54.611Z,5.10
2018-02-27T04:12:23.625Z,5.05
2018-02-27T04:14:51.891Z,4.15
2018-02-27T04:17:20.142Z,4.47
2018-02-27T04:19:48.402Z,4.68
2018-02-27T04:22:16.651Z,4.45
2018-02-27T04:24:44.920Z,5.28
2018-02-27T04:27:13.178Z,4.72
2018-02-27T04:29:42.207Z,4.45
2018-02-27T04:32:10.496Z,4.10
2018-02-27T04:34:38.753Z,3.90
2018-02-27T04:37:07.014Z,4.07
2018-02-27T04:39:36.038Z,5.32
2018-02-27T04:42:04.297Z,4.62
2018-02-27T04:44:32.576Z,3.45
2018-02-27T04:47:00.817Z,4.00
2018-02-27T04:49:29.082Z,4.53
2018-02-27T04:51:57.343Z,3.70
2018-02-27T04:54:25.653Z,3.80
2018-02-27T04:56:53.854Z,3.97
2018-02-27T04:59:22.938Z,3.70
2018-02-27T05:01:51.277Z,4.25
2018-02-27T05:04:19.558Z,5.10
2018-02-27T05:06:47.813Z,4.60
2018-02-27T05:09:16.117Z,5.78
2018-02-27T05:11:44.359Z,4.15
2018-02-27T05:14:13.407Z,4.12
2018-02-27T05:16:41.638Z,4.60
2018-02-27T05:19:09.930Z,3.90
2018-02-27T05:21:38.197Z,4.80
2018-02-27T05:24:07.234Z,3.90
2018-02-27T05:26:35.482Z,4.30
2018-02-27T05:29:03.746Z,4.50
2018-02-27T05:31:32.786Z,3.90
2018-02-27T05:34:01.052Z,5.28
2018-02-27T05:36:29.317Z,4.35
2018-02-27T05:38:58.339Z,4.00
2018-02-27T05:41:26.890Z,4.45
2018-02-27T05:43:55.122Z,3.40
2018-02-27T05:46:23.491Z,4.40
2018-02-27T05:48:52.345Z,4.75
2018-02-27T05:51:21.392Z,4.40
2018-02-27T05:53:49.633Z,4.20
2018-02-27T05:56:17.900Z,3.85
2018-02-27T05:58:46.946Z,4.47
2018-02-27T06:01:15.210Z,4.68
2018-02-27T06:03:43.459Z,4.78
2018-02-27T06:06:12.479Z,4.22
2018-02-27T06:08:40.777Z,4.65
2018-02-27T06:11:09.101Z,3.42
2018-02-27T06:13:37.322Z,4.95
2018-02-27T06:16:05.587Z,5.20
2018-02-27T06:18:34.611Z,4.37
2018-02-27T06:21:02.885Z,4.07
2018-02-27T06:23:31.132Z,5.18
2018-02-27T06:26:00.158Z,4.53
2018-02-27T06:28:28.405Z,5.05
2018-02-27T06:30:56.685Z,4.47
2018-02-27T06:33:24.922Z,4.50
2018-02-27T06:35:53.206Z,5.60
2018-02-27T06:38:21.460Z,5.12
2018-02-27T06:40:49.728Z,4.70
2018-02-27T06:43:18.765Z,5.15
2018-02-27T06:45:47.024Z,4.72
2018-02-27T06:48:15.809Z,6.07
2018-02-27T06:50:44.082Z,5.82
2018-02-27T06:53:13.094Z,4.50
2018-02-27T06:55:41.358Z,5.10
2018-02-27T06:58:10.372Z,5.80
2018-02-27T07:00:38.668Z,5.00
2018-02-27T07:03:06.914Z,4.80
2018-02-27T07:05:35.966Z,5.85
2018-02-27T07:08:04.222Z,5.15
2018-02-27T07:10:32.484Z,5.22
2018-02-27T07:13:00.759Z,5.07
2018-02-27T07:15:29.044Z,5.62
2018-02-27T07:17:57.288Z,5.90
2018-02-27T07:20:25.553Z,5.47
2018-02-27T07:22:53.806Z,6.43
2018-02-27T07:25:22.135Z,6.40
2018-02-27T07:27:50.376Z,6.30
2018-02-27T07:30:18.653Z,7.25
2018-02-27T07:32:46.897Z,7.22
2018-02-27T07:35:15.945Z,5.93
2018-02-27T07:37:44.218Z,6.85
2018-02-27T07:40:12.517Z,7.60
2018-02-27T07:42:40.782Z,6.68
2018-02-27T07:45:09.038Z,7.27
2018-02-27T07:47:37.292Z,6.37
2018-02-27T07:50:05.563Z,8.20
2018-02-27T07:52:33.886Z,6.93
2018-02-27T07:55:02.102Z,7.10
2018-02-27T07:57:30.349Z,6.53
2018-02-27T07:59:58.646Z,6.40
2018-02-27T08:02:27.121Z,6.80
2018-02-27T08:04:55.510Z,7.23
2018-02-27T08:07:23.790Z,7.53
2018-02-27T08:09:52.047Z,6.80
2018-02-27T08:12:20.282Z,7.10
2018-02-27T08:14:48.576Z,8.13
2018-02-27T08:17:17.649Z,8.63
2018-02-27T08:19:45.924Z,9.50
2018-02-27T08:22:14.210Z,8.40
2018-02-27T08:24:42.487Z,9.77
2018-02-27T08:27:10.734Z,7.37
2018-02-27T08:29:39.155Z,7.77
2018-02-27T08:32:07.411Z,8.20
2018-02-27T08:34:35.681Z,9.90
2018-02-27T08:37:03.979Z,9.83
2018-02-27T08:39:32.329Z,9.83
2018-02-27T08:42:00.623Z,9.33
2018-02-27T08:44:28.896Z,8.57
2018-02-27T08:46:57.194Z,9.10
2018-02-27T08:49:25.455Z,8.00
2018-02-27T08:51:54.520Z,9.67
2018-02-27T08:54:22.767Z,9.93
2018-02-27T08:56:51.168Z,10.43
2018-02-27T08:59:19.416Z,9.10
2018-02-27T09:01:47.725Z,9.87
2018-02-27T09:04:15.989Z,9.50
2018-02-27T09:06:44.266Z,8.73
2018-02-27T09:09:13.414Z,10.57
2018-02-27T09:11:41.691Z,9.47
2018-02-27T09:14:11.450Z,9.30
2018-02-27T09:16:39.709Z,9.93
2018-02-27T09:19:08.767Z,9.20
2018-02-27T09:21:37.030Z,8.90
2018-02-27T09:24:05.267Z,9.70
2018-02-27T09:26:34.330Z,9.00
2018-02-27T09:29:02.574Z,8.70
2018-02-27T09:31:30.835Z,9.50
2018-02-27T09:33:59.143Z,9.83
2018-02-27T09:36:27.419Z,8.93
2018-02-27T09:38:55.663Z,9.37
2018-02-27T09:41:24.742Z,9.53
2018-02-27T09:43:52.960Z,9.90
2018-02-27T09:46:21.247Z,9.63
2018-02-27T09:48:50.246Z,9.20
2018-02-27T09:51:21.627Z,10.03
2018-02-27T09:53:50.058Z,9.33
2018-02-27T09:56:18.309Z,10.10
2018-02-27T09:58:46.573Z,9.20
2018-02-27T10:01:18.678Z,9.63
2018-02-27T10:03:47.739Z,8.60
2018-02-27T10:06:16.095Z,8.53
2018-02-27T10:08:44.394Z,10.10
2018-02-27T10:11:12.689Z,8.83
2018-02-27T10:13:40.934Z,8.97
2018-02-27T10:16:09.203Z,8.43
2018-02-27T10:18:38.210Z,9.87
2018-02-27T10:21:06.554Z,9.17
2018-02-27T10:23:34.817Z,9.20
2018-02-27T10:26:03.856Z,8.80
2018-02-27T10:28:32.894Z,9.23
2018-02-27T10:31:01.164Z,8.67
2018-02-27T10:33:29.406Z,7.90
2018-02-27T10:35:57.684Z,8.37
2018-02-27T10:38:26.691Z,8.40
2018-02-27T10:40:55.714Z,8.60
2018-02-27T10:43:23.990Z,7.87
2018-02-27T10:45:52.267Z,7.27
2018-02-27T10:48:21.304Z,8.40
2018-02-27T10:50:49.559Z,7.30
2018-02-27T10:53:17.800Z,8.50
2018-02-27T10:55:46.070Z,7.30
2018-02-27T10:58:14.336Z,7.00
2018-02-27T11:00:48.261Z,6.83
2018-02-27T11:03:16.498Z,6.90
2018-02-27T11:05:44.761Z,8.30
2018-02-27T11:08:13.816Z,8.60
2018-02-27T11:10:42.208Z,6.90
2018-02-27T11:13:10.470Z,6.30
2018-02-27T11:15:38.723Z,7.57
2018-02-27T11:18:06.981Z,7.00
2018-02-27T11:20:36.030Z,8.13
2018-02-27T11:23:04.297Z,6.70
2018-02-27T11:25:33.235Z,6.97
2018-02-27T11:28:01.487Z,8.00
2018-02-27T11:30:29.742Z,8.00
2018-02-27T11:32:58.002Z,8.23
2018-02-27T11:35:27.126Z,7.83
2018-02-27T11:37:55.398Z,8.00
2018-02-27T11:40:24.406Z,7.60
2018-02-27T11:42:52.681Z,7.63
2018-02-27T11:45:21.679Z,7.17
2018-02-27T11:47:49.937Z,8.50
2018-02-27T11:50:18.960Z,7.33
2018-02-27T11:52:47.257Z,7.97
2018-02-27T11:55:15.499Z,6.40
2018-02-27T11:57:43.762Z,7.63
2018-02-27T12:00:13.155Z,7.50
2018-02-27T12:02:42.454Z,6.93
2018-02-27T12:05:11.547Z,7.23
2018-02-27T12:07:39.934Z,6.97
2018-02-27T12:10:08.254Z,6.73
2018-02-27T12:12:36.554Z,7.10
2018-02-27T12:15:04.818Z,7.30
2018-02-27T12:17:33.098Z,7.00
2018-02-27T12:20:01.390Z,6.93
2018-02-27T12:22:29.679Z,6.40
2018-02-27T12:24:57.957Z,5.70
2018-02-27T12:27:27.408Z,5.80
2018-02-27T12:29:55.622Z,5.80
2018-02-27T12:32:24.675Z,6.80
2018-02-27T12:34:52.897Z,6.17
2018-02-27T12:37:21.928Z,5.70
2018-02-27T12:39:50.157Z,6.73
2018-02-27T12:42:19.935Z,4.77
2018-02-27T12:44:48.206Z,5.77
2018-02-27T12:47:16.475Z,5.80
2018-02-27T12:49:44.723Z,5.97
2018-02-27T12:52:13.737Z,5.40
2018-02-27T12:54:41.982Z,5.07
2018-02-27T12:57:10.236Z,5.57
2018-02-27T12:59:38.535Z,4.47
2018-02-27T13:02:06.910Z,5.77
2018-02-27T13:04:35.728Z,6.27
2018-02-27T13:07:04.122Z,5.17
2018-02-27T13:09:32.370Z,5.80
2018-02-27T13:12:00.732Z,5.67
2018-02-27T13:14:28.988Z,5.00
2018-02-27T13:16:58.042Z,5.30
2018-02-27T13:19:26.261Z,6.00
2018-02-27T13:21:54.982Z,6.33
2018-02-27T13:24:23.264Z,5.80
2018-02-27T13:26:51.521Z,5.97
2018-02-27T13:29:19.758Z,5.10
2018-02-27T13:31:48.106Z,5.93
2018-02-27T13:34:16.345Z,5.60
2018-02-27T13:36:45.357Z,6.00
2018-02-27T13:39:13.610Z,5.17
2018-02-27T13:41:41.860Z,5.27
2018-02-27T13:44:10.135Z,5.10
2018-02-27T13:46:38.412Z,5.50
2018-02-27T13:49:06.638Z,4.77
2018-02-27T13:51:34.891Z,6.00
2018-02-27T13:54:03.147Z,4.80
2018-02-27T13:56:31.447Z,5.23
2018-02-27T13:58:59.715Z,5.20
2018-02-27T14:01:27.993Z,5.70
2018-02-27T14:03:56.504Z,5.50
2018-02-27T14:06:25.098Z,4.80
2018-02-27T14:08:53.840Z,6.00
2018-02-27T14:11:23.149Z,5.40
2018-02-27T14:13:51.780Z,4.50
2018-02-27T14:16:20.365Z,4.90
2018-02-27T14:18:48.718Z,4.87
2018-02-27T14:21:16.963Z,5.50
2018-02-27T14:23:45.244Z,5.77
2018-02-27T14:26:13.566Z,5.03
2018-02-27T14:28:41.886Z,5.10
2018-02-27T14:31:11.041Z,4.80
2018-02-27T14:33:39.269Z,4.43
2018-02-27T14:36:08.315Z,5.13
2018-02-27T14:38:36.559Z,5.20
2018-02-27T14:41:05.582Z,4.13
2018-02-27T14:43:33.823Z,4.83
2018-02-27T14:46:02.869Z,5.07
2018-02-27T14:48:31.267Z,6.20
2018-02-27T14:50:59.522Z,4.70
2018-02-27T14:53:27.791Z,5.50
2018-02-27T14:55:56.650Z,5.70
2018-02-27T14:58:24.901Z,5.47
2018-02-27T15:00:53.147Z,5.77
2018-02-27T15:03:21.447Z,5.60
2018-02-27T15:05:49.690Z,5.77
2018-02-27T15:08:18.767Z,5.73
2018-02-27T15:10:47.007Z,5.37
2018-02-27T15:13:15.313Z,5.13
2018-02-27T15:15:43.561Z,6.17
2018-02-27T15:18:11.831Z,5.87
2018-02-27T15:20:40.068Z,5.40
2018-02-27T15:23:08.420Z,6.27
2018-02-27T15:25:36.657Z,4.60
2018-02-27T15:28:04.930Z,5.77
2018-02-27T15:30:33.180Z,4.97
2018-02-27T15:33:01.442Z,5.10
2018-02-27T15:35:29.687Z,5.80
2018-02-27T15:37:57.947Z,5.10
2018-02-27T15:40:26.265Z,5.40
2018-02-27T15:42:54.530Z,5.50
2018-02-27T15:45:22.818Z,5.78
2018-02-27T15:47:51.090Z,5.27
2018-02-27T15:50:19.355Z,5.43
2018-02-27T15:52:47.662Z,5.90
2018-02-27T15:55:15.943Z,5.97
2018-02-27T15:57:44.195Z,4.73
2018-02-27T16:00:13.226Z,5.47
2018-02-27T16:02:41.475Z,5.60
2018-02-27T16:05:09.750Z,4.97
2018-02-27T16:07:38.005Z,6.05
2018-02-27T16:10:06.362Z,5.05
2018-02-27T16:12:34.634Z,5.75
2018-02-27T16:15:03.827Z,6.00
2018-02-27T16:17:32.080Z,5.15
2018-02-27T16:20:01.330Z,5.87
2018-02-27T16:22:29.599Z,5.18
2018-02-27T16:24:58.443Z,4.93
2018-02-27T16:27:27.453Z,4.50
2018-02-27T16:29:55.772Z,5.47
2018-02-27T16:32:24.007Z,6.30
2018-02-27T16:34:52.297Z,6.62
2018-02-27T16:37:20.606Z,6.00
2018-02-27T16:39:48.933Z,6.62
2018-02-27T16:42:17.150Z,6.65
2018-02-27T16:44:45.414Z,5.60
2018-02-27T16:47:13.684Z,5.22
2018-02-27T16:49:42.709Z,5.80
2018-02-27T16:52:11.039Z,4.93
2018-02-27T16:54:39.289Z,6.07
2018-02-27T16:57:07.803Z,6.80
2018-02-27T16:59:36.062Z,5.30
2018-02-27T17:02:04.355Z,6.17
2018-02-27T17:04:33.118Z,5.33
2018-02-27T17:07:01.465Z,6.50
2018-02-27T17:09:29.683Z,5.40
2018-02-27T17:11:57.952Z,6.05
2018-02-27T17:14:26.211Z,7.45
2018-02-27T17:16:55.351Z,6.35
2018-02-27T17:19:23.626Z,6.53
2018-02-27T17:21:51.893Z,5.30
2018-02-27T17:24:20.182Z,6.60
2018-02-27T17:26:48.446Z,6.05
2018-02-27T17:29:16.706Z,5.97
2018-02-27T17:31:44.978Z,6.22
2018-02-27T17:34:13.995Z,5.80
2018-02-27T17:36:42.307Z,7.40
2018-02-27T17:39:10.557Z,6.45
2018-02-27T17:41:38.873Z,6.40
2018-02-27T17:44:07.251Z,6.37
2018-02-27T17:46:35.508Z,7.00
2018-02-27T17:49:03.771Z,6.35
2018-02-27T17:51:32.102Z,6.60
2018-02-27T17:54:00.371Z,6.25
2018-02-27T17:56:28.655Z,6.43
2018-02-27T17:58:56.914Z,7.30
2018-02-27T18:01:25.177Z,6.28
2018-02-27T18:03:53.492Z,6.62
2018-02-27T18:06:21.768Z,6.47
2018-02-27T18:08:50.035Z,6.45
2018-02-27T18:11:18.283Z,5.43
2018-02-27T18:13:47.427Z,6.57
2018-02-27T18:16:15.691Z,6.70
2018-02-27T18:18:43.954Z,5.65
2018-02-27T18:21:12.280Z,6.65
2018-02-27T18:23:40.565Z,6.85
2018-02-27T18:26:09.415Z,6.07
2018-02-27T18:28:37.690Z,7.47
2018-02-27T18:31:05.953Z,5.93
2018-02-27T18:33:34.229Z,6.40
2018-02-27T18:36:02.484Z,9.48
2018-02-27T18:38:30.771Z,6.12
2018-02-27T18:40:59.024Z,6.75
2018-02-27T18:43:27.288Z,7.65
2018-02-27T18:45:55.546Z,6.25
2018-02-27T18:48:24.578Z,6.57
2018-02-27T18:50:52.827Z,6.45
2018-02-27T18:53:21.099Z,6.78
2018-02-27T18:55:50.109Z,5.50
2018-02-27T18:58:18.427Z,5.40
2018-02-27T19:00:46.667Z,6.10
2018-02-27T19:03:14.987Z,6.20
2018-02-27T19:05:43.235Z,6.07
2018-02-27T19:08:11.514Z,5.72
2018-02-27T19:10:39.817Z,6.03
2018-02-27T19:13:08.106Z,5.32
2018-02-27T19:15:36.377Z,5.40
2018-02-27T19:18:04.667Z,6.30
2018-02-27T19:20:32.962Z,5.75
2018-02-27T19:23:01.243Z,6.75
2018-02-27T19:25:29.508Z,6.43
2018-02-27T19:27:58.952Z,6.25
2018-02-27T19:30:27.235Z,5.62
2018-02-27T19:32:55.620Z,6.65
2018-02-27T19:35:23.874Z,6.80
2018-02-27T19:37:52.518Z,7.45
2018-02-27T19:40:20.920Z,6.53
2018-02-27T19:42:49.280Z,5.62
2018-02-27T19:45:17.531Z,5.65
2018-02-27T19:47:45.873Z,5.68
2018-02-27T19:50:14.128Z,6.10
2018-02-27T19:52:42.436Z,6.30
2018-02-27T19:55:10.692Z,5.90
2018-02-27T19:57:39.000Z,6.40
2018-02-27T20:00:07.254Z,5.97
2018-02-27T20:02:35.531Z,6.30
2018-02-27T20:05:03.856Z,6.35
2018-02-27T20:07:32.130Z,10.70
2018-02-27T20:10:00.842Z,6.55
2018-02-27T20:12:29.200Z,6.47
2018-02-27T20:14:57.482Z,6.60
2018-02-27T20:17:26.204Z,6.95
2018-02-27T20:19:54.660Z,7.55
2018-02-27T20:25:25.423Z,6.47
2018-02-27T20:27:53.686Z,6.85
2018-02-27T20:30:21.938Z,6.90
2018-02-27T20:32:51.173Z,6.10
2018-02-27T20:35:19.501Z,5.45
2018-02-27T20:37:47.744Z,6.45
2018-02-27T20:40:15.985Z,6.55
2018-02-27T20:42:44.274Z,5.62
2018-02-27T20:45:13.284Z,5.87
2018-02-27T20:47:41.554Z,6.53
2018-02-27T20:50:09.806Z,6.28
2018-02-27T20:52:38.066Z,6.12
2018-02-27T20:55:06.326Z,6.50
2018-02-27T20:57:34.595Z,6.90
2018-02-27T21:00:02.862Z,6.10
2018-02-27T21:02:31.114Z,7.22
2018-02-27T21:05:00.253Z,6.20
2018-02-27T21:07:28.506Z,7.35
2018-02-27T21:09:56.770Z,7.12
2018-02-27T21:12:25.825Z,6.65
2018-02-27T21:14:54.197Z,6.47
2018-02-27T21:17:22.442Z,6.18
2018-02-27T21:19:51.478Z,6.32
2018-02-27T21:22:19.733Z,6.80
2018-02-27T21:24:47.998Z,6.68
2018-02-27T21:27:17.023Z,7.22
2018-02-27T21:29:45.290Z,7.00
2018-02-27T21:32:13.555Z,6.68
2018-02-27T21:34:42.587Z,6.78
2018-02-27T21:37:10.875Z,7.15
2018-02-27T21:39:39.145Z,7.78
2018-02-27T21:42:07.397Z,7.07
2018-02-27T21:44:36.548Z,7.05
2018-02-27T21:47:05.755Z,5.80
2018-02-27T21:49:34.025Z,6.22
2018-02-27T21:52:02.275Z,7.37
2018-02-27T21:54:30.686Z,6.25
2018-02-27T21:56:58.966Z,6.18
2018-02-27T21:59:27.222Z,6.90
2018-02-27T22:01:55.862Z,5.95
2018-02-27T22:04:24.357Z,7.05
2018-02-27T22:06:53.043Z,6.68
2018-02-27T22:09:21.490Z,7.05
2018-02-27T22:11:49.779Z,6.57
2018-02-27T22:14:18.043Z,5.90
2018-02-27T22:16:46.305Z,6.87
2018-02-27T22:19:14.571Z,6.35
2018-02-27T22:21:43.601Z,6.72
2018-02-27T22:24:11.859Z,7.78
2018-02-27T22:26:40.206Z,7.30
2018-02-27T22:29:08.452Z,6.47
2018-02-27T22:31:36.831Z,7.35
2018-02-27T22:34:05.813Z,6.50
2018-02-27T22:36:34.062Z,5.78
2018-02-27T22:39:03.102Z,7.00
2018-02-27T22:41:31.352Z,6.75
2018-02-27T22:44:00.391Z,6.85
2018-02-27T22:46:28.642Z,6.35
2018-02-27T22:48:56.907Z,6.97
2018-02-27T22:51:25.926Z,6.30
2018-02-27T22:53:54.228Z,6.53
2018-02-27T22:56:22.477Z,6.10
2018-02-27T22:58:50.743Z,6.00
2018-02-27T23:01:20.782Z,5.70
2018-02-27T23:03:49.093Z,6.43
2018-02-27T23:06:17.349Z,7.00
2018-02-27T23:08:45.614Z,5.93
2018-02-27T23:11:14.640Z,5.95
2018-02-27T23:13:42.944Z,6.82
2018-02-27T23:16:11.162Z,7.00
2018-02-27T23:18:40.213Z,6.62
2018-02-27T23:21:08.461Z,6.22
2018-02-27T23:23:36.731Z,5.90
2018-02-27T23:26:10.116Z,6.10
2018-02-27T23:28:47.336Z,6.22
2018-02-27T23:31:15.886Z,5.90
2018-02-27T23:33:48.011Z,6.35
2018-02-27T23:36:16.358Z,7.18
2018-02-27T23:38:45.498Z,6.35
2018-02-27T23:41:13.755Z,6.78
2018-02-27T23:43:42.015Z,6.78
2018-02-27T23:46:11.035Z,7.78
2018-02-27T23:48:39.320Z,7.47
2018-02-27T23:51:07.577Z,7.50
2018-02-27T23:53:36.725Z,7.07
2018-02-27T23:56:04.980Z,7.30
2018-02-27T23:58:33.276Z,7.90
